createdAt,value
2018-05-13T00:01:57.540Z,14.66
2018-05-13T00:04:25.010Z,14.60
2018-05-13T00:06:52.453Z,14.60
2018-05-13T00:09:19.882Z,14.60
2018-05-13T00:11:48.297Z,14.42
2018-05-13T00:17:07.926Z,14.35
2018-05-13T00:35:07.990Z,14.41
2018-05-13T00:37:39.998Z,14.42
2018-05-13T00:40:10.163Z,14.25
2018-05-13T00:42:39.631Z,14.22
2018-05-13T00:45:08.182Z,14.23
2018-05-13T00:47:39.421Z,14.32
2018-05-13T00:50:06.857Z,14.32
2018-05-13T00:52:34.306Z,14.26
2018-05-13T00:55:01.755Z,14.32
2018-05-13T00:57:29.197Z,14.29
2018-05-13T00:59:56.619Z,14.44
2018-05-13T01:02:24.089Z,14.41
2018-05-13T01:04:51.516Z,14.40
2018-05-13T01:07:18.925Z,14.56
2018-05-13T01:09:46.378Z,14.61
2018-05-13T01:12:13.810Z,14.73
2018-05-13T01:14:41.256Z,14.83
2018-05-13T01:17:08.678Z,14.73
2018-05-13T01:19:36.132Z,14.87
2018-05-13T01:22:03.574Z,14.88
2018-05-13T01:24:31.026Z,14.75
2018-05-13T01:27:00.443Z,14.85
2018-05-13T01:29:27.893Z,14.80
2018-05-13T01:31:55.316Z,14.84
2018-05-13T01:34:22.759Z,14.63
2018-05-13T01:36:50.186Z,14.43
2018-05-13T01:39:18.573Z,14.36
2018-05-13T01:41:46.011Z,14.26
2018-05-13T01:44:13.462Z,14.39
2018-05-13T01:46:40.905Z,14.51
2018-05-13T01:49:09.325Z,14.57
2018-05-13T01:51:36.809Z,14.32
2018-05-13T01:54:04.268Z,14.32
2018-05-13T01:56:31.711Z,14.23
2018-05-13T01:58:59.145Z,14.14
2018-05-13T02:01:26.613Z,14.02
2018-05-13T02:03:54.030Z,13.98
2018-05-13T02:06:23.478Z,14.05
2018-05-13T02:08:50.897Z,13.98
2018-05-13T02:11:18.352Z,13.91
2018-05-13T02:13:45.772Z,13.89
2018-05-13T02:16:13.222Z,13.90
2018-05-13T02:18:40.640Z,14.02
2018-05-13T02:21:08.100Z,13.80
2018-05-13T02:23:35.517Z,13.69
2018-05-13T02:26:02.961Z,13.83
2018-05-13T02:28:30.384Z,13.94
2018-05-13T02:30:57.842Z,13.79
2018-05-13T02:33:25.296Z,13.83
2018-05-13T02:35:52.717Z,13.82
2018-05-13T02:38:20.173Z,13.61
2018-05-13T02:40:47.598Z,13.53
2018-05-13T02:43:15.042Z,13.63
2018-05-13T02:45:42.466Z,13.52
2018-05-13T02:48:09.924Z,13.49
2018-05-13T02:50:43.945Z,13.63
2018-05-13T02:53:11.392Z,13.58
2018-05-13T02:55:38.810Z,13.54
2018-05-13T02:58:07.154Z,13.46
2018-05-13T03:00:34.584Z,13.66
2018-05-13T03:03:02.026Z,13.64
2018-05-13T03:05:29.449Z,13.43
2018-05-13T03:07:56.891Z,13.29
2018-05-13T03:10:24.308Z,13.39
2018-05-13T03:12:51.772Z,13.48
2018-05-13T03:15:19.568Z,13.53
2018-05-13T03:17:47.022Z,13.59
2018-05-13T03:20:14.450Z,13.78
2018-05-13T03:22:41.886Z,13.92
2018-05-13T03:25:09.306Z,13.79
2018-05-13T03:27:36.742Z,13.68
2018-05-13T03:30:04.198Z,13.78
2018-05-13T03:32:31.633Z,13.71
2018-05-13T03:34:59.101Z,13.66
2018-05-13T03:37:27.521Z,13.58
2018-05-13T03:39:55.926Z,13.51
2018-05-13T03:42:23.357Z,13.64
2018-05-13T03:44:50.785Z,13.85
2018-05-13T03:47:18.198Z,13.80
2018-05-13T03:49:45.649Z,13.86
2018-05-13T03:52:13.062Z,14.00
2018-05-13T03:54:44.797Z,14.06
2018-05-13T03:57:14.161Z,14.13
2018-05-13T03:59:42.545Z,14.07
2018-05-13T04:02:15.201Z,14.14
2018-05-13T04:04:42.685Z,14.24
2018-05-13T04:07:10.112Z,14.40
2018-05-13T04:09:49.284Z,14.48
2018-05-13T04:12:28.524Z,14.39
2018-05-13T04:17:58.594Z,14.18
2018-05-13T04:20:26.037Z,14.23
2018-05-13T04:22:53.458Z,14.19
2018-05-13T04:25:20.889Z,14.22
2018-05-13T04:27:48.329Z,14.39
2018-05-13T04:30:15.755Z,14.42
2018-05-13T04:32:43.210Z,14.73
2018-05-13T04:35:10.631Z,14.67
2018-05-13T04:37:38.084Z,14.50
2018-05-13T04:40:05.493Z,14.72
2018-05-13T04:42:32.948Z,14.68
2018-05-13T04:45:00.358Z,14.88
2018-05-13T04:47:27.808Z,14.87
2018-05-13T04:49:55.225Z,14.78
2018-05-13T04:52:22.751Z,14.77
2018-05-13T04:54:50.205Z,14.93
2018-05-13T04:57:17.662Z,14.87
2018-05-13T04:59:45.073Z,14.99
2018-05-13T05:02:12.496Z,14.94
2018-05-13T05:04:39.952Z,15.22
2018-05-13T05:07:07.370Z,14.97
2018-05-13T05:09:34.818Z,15.32
2018-05-13T05:12:02.238Z,15.58
2018-05-13T05:14:29.689Z,15.75
2018-05-13T05:16:57.470Z,15.72
2018-05-13T05:19:24.915Z,15.52
2018-05-13T05:21:54.347Z,15.50
2018-05-13T05:24:22.745Z,15.82
2018-05-13T05:26:56.585Z,16.03
2018-05-13T05:29:24.034Z,15.74
2018-05-13T05:31:51.451Z,15.87
2018-05-13T05:34:18.898Z,15.99
2018-05-13T05:36:46.321Z,15.76
2018-05-13T05:39:13.766Z,16.04
2018-05-13T05:41:41.183Z,16.11
2018-05-13T05:44:08.636Z,16.37
2018-05-13T05:46:37.012Z,16.52
2018-05-13T05:49:04.466Z,16.39
2018-05-13T05:51:31.891Z,16.57
2018-05-13T05:54:01.673Z,16.49
2018-05-13T05:56:30.097Z,16.69
2018-05-13T05:58:57.533Z,16.68
2018-05-13T06:01:24.990Z,16.87
2018-05-13T06:03:52.414Z,16.95
2018-05-13T06:06:20.775Z,16.87
2018-05-13T06:08:48.201Z,16.95
2018-05-13T06:11:15.661Z,17.34
2018-05-13T06:13:44.038Z,17.48
2018-05-13T06:16:11.482Z,17.28
2018-05-13T06:18:38.910Z,17.21
2018-05-13T06:21:06.358Z,17.55
2018-05-13T06:23:33.784Z,17.64
2018-05-13T06:26:01.265Z,17.59
2018-05-13T06:28:28.697Z,17.62
2018-05-13T06:30:56.208Z,17.37
2018-05-13T06:33:23.630Z,17.61
2018-05-13T06:35:51.083Z,17.68
2018-05-13T06:38:18.505Z,17.58
2018-05-13T06:40:49.802Z,17.85
2018-05-13T06:43:18.248Z,17.62
2018-05-13T06:45:45.733Z,17.79
2018-05-13T06:48:13.155Z,18.14
2018-05-13T06:50:40.579Z,17.71
2018-05-13T06:53:08.022Z,17.89
2018-05-13T06:55:35.448Z,18.11
2018-05-13T06:58:02.889Z,17.87
2018-05-13T07:00:30.323Z,17.82
2018-05-13T07:02:57.770Z,17.99
2018-05-13T07:05:25.238Z,18.14
2018-05-13T07:07:52.685Z,17.99
2018-05-13T07:10:20.104Z,17.66
2018-05-13T07:12:47.546Z,17.82
2018-05-13T07:15:14.978Z,17.91
2018-05-13T07:17:42.425Z,18.43
2018-05-13T07:20:09.853Z,18.48
2018-05-13T07:22:39.311Z,18.03
2018-05-13T07:25:06.736Z,18.07
2018-05-13T07:27:35.150Z,18.38
2018-05-13T07:30:02.572Z,18.75
2018-05-13T07:32:30.023Z,19.23
2018-05-13T07:34:57.889Z,19.40
2018-05-13T07:37:25.365Z,18.86
2018-05-13T07:39:52.786Z,19.53
2018-05-13T07:42:20.210Z,19.24
2018-05-13T07:44:49.582Z,18.45
2018-05-13T07:47:17.014Z,18.21
2018-05-13T07:49:44.466Z,18.15
2018-05-13T07:52:11.882Z,18.61
2018-05-13T07:54:39.329Z,18.67
2018-05-13T07:57:09.910Z,19.03
2018-05-13T07:59:37.371Z,19.65
2018-05-13T08:02:04.793Z,19.26
2018-05-13T08:04:32.242Z,19.22
2018-05-13T08:06:59.706Z,19.04
2018-05-13T08:09:28.165Z,18.96
2018-05-13T08:11:55.590Z,18.60
2018-05-13T08:14:25.026Z,17.86
2018-05-13T08:16:52.449Z,18.66
2018-05-13T08:19:19.889Z,19.04
2018-05-13T08:21:48.281Z,18.88
2018-05-13T08:24:17.723Z,18.65
2018-05-13T08:26:45.141Z,18.22
2018-05-13T08:29:12.565Z,18.52
2018-05-13T08:31:40.011Z,18.67
2018-05-13T08:34:07.430Z,19.24
2018-05-13T08:36:34.881Z,19.83
2018-05-13T08:39:06.639Z,20.24
2018-05-13T08:41:36.047Z,20.06
2018-05-13T08:44:03.490Z,20.13
2018-05-13T08:46:30.959Z,19.99
2018-05-13T08:48:58.398Z,20.16
2018-05-13T08:51:25.866Z,20.17
2018-05-13T08:53:53.313Z,20.52
2018-05-13T08:56:22.702Z,20.48
2018-05-13T08:58:50.122Z,20.37
2018-05-13T09:01:18.554Z,20.32
2018-05-13T09:03:45.977Z,20.45
2018-05-13T09:06:13.455Z,20.80
2018-05-13T09:08:41.830Z,21.17
2018-05-13T09:11:09.305Z,20.93
2018-05-13T09:13:36.754Z,20.74
2018-05-13T09:16:05.150Z,20.79
2018-05-13T09:18:34.565Z,20.91
2018-05-13T09:21:01.998Z,21.04
2018-05-13T09:23:29.446Z,21.36
2018-05-13T09:25:56.869Z,21.21
2018-05-13T09:28:24.349Z,20.54
2018-05-13T09:30:51.765Z,20.70
2018-05-13T09:33:19.213Z,20.56
2018-05-13T09:35:46.645Z,20.67
2018-05-13T09:38:14.108Z,20.89
2018-05-13T09:40:43.484Z,20.58
2018-05-13T09:43:11.881Z,20.64
2018-05-13T09:45:44.174Z,21.31
2018-05-13T09:48:15.709Z,20.38
2018-05-13T09:50:44.085Z,20.22
2018-05-13T09:53:12.468Z,20.32
2018-05-13T09:55:44.419Z,20.17
2018-05-13T09:58:11.885Z,19.77
2018-05-13T10:00:39.317Z,19.95
2018-05-13T10:03:10.272Z,20.38
2018-05-13T10:05:49.367Z,20.56
2018-05-13T10:08:19.258Z,20.33
2018-05-13T10:10:47.309Z,20.42
2018-05-13T10:13:17.616Z,20.20
2018-05-13T10:15:47.202Z,20.12
2018-05-13T10:18:16.703Z,20.69
2018-05-13T10:23:50.970Z,20.85
2018-05-13T10:26:18.425Z,20.46
2018-05-13T10:28:49.675Z,20.39
2018-05-13T10:31:17.130Z,20.21
2018-05-13T10:33:45.469Z,19.68
2018-05-13T10:36:12.927Z,20.18
2018-05-13T10:38:43.773Z,20.12
2018-05-13T10:41:25.251Z,20.30
2018-05-13T10:43:54.693Z,19.95
2018-05-13T10:46:22.149Z,19.92
2018-05-13T10:48:49.582Z,19.93
2018-05-13T10:51:17.026Z,20.38
2018-05-13T10:53:44.441Z,20.11
2018-05-13T10:56:11.906Z,20.41
2018-05-13T10:58:39.350Z,20.21
2018-05-13T11:01:06.769Z,20.04
2018-05-13T11:03:35.081Z,19.84
2018-05-13T11:06:04.626Z,20.21
2018-05-13T11:08:32.949Z,20.10
2018-05-13T11:11:00.357Z,20.13
2018-05-13T11:13:28.770Z,20.14
2018-05-13T11:15:56.193Z,20.21
2018-05-13T11:18:23.669Z,20.31
2018-05-13T11:20:53.073Z,20.55
2018-05-13T11:23:20.541Z,20.96
2018-05-13T11:25:47.966Z,21.12
2018-05-13T11:28:15.406Z,20.89
2018-05-13T11:30:42.826Z,21.14
2018-05-13T11:33:11.197Z,21.35
2018-05-13T11:35:38.617Z,21.55
2018-05-13T11:38:06.037Z,21.93
2018-05-13T11:40:34.470Z,22.13
2018-05-13T11:43:03.850Z,22.07
2018-05-13T11:45:31.302Z,22.37
2018-05-13T11:47:59.685Z,22.60
2018-05-13T11:50:27.138Z,22.54
2018-05-13T11:52:54.557Z,22.50
2018-05-13T11:55:22.014Z,22.70
2018-05-13T11:57:49.437Z,22.91
2018-05-13T12:00:16.893Z,22.69
2018-05-13T12:02:44.310Z,23.15
2018-05-13T12:05:11.753Z,23.16
2018-05-13T12:07:39.174Z,23.30
2018-05-13T12:10:07.566Z,23.42
2018-05-13T12:12:34.991Z,23.64
2018-05-13T12:15:02.458Z,23.83
2018-05-13T12:17:29.875Z,24.04
2018-05-13T12:19:57.341Z,23.99
2018-05-13T12:22:24.773Z,23.56
2018-05-13T12:24:53.190Z,23.78
2018-05-13T12:27:20.639Z,24.14
2018-05-13T12:29:48.068Z,24.30
2018-05-13T12:32:15.520Z,24.87
2018-05-13T12:34:42.939Z,24.45
2018-05-13T12:37:11.317Z,24.84
2018-05-13T12:39:38.737Z,24.78
2018-05-13T12:42:06.229Z,25.24
2018-05-13T12:44:33.649Z,24.85
2018-05-13T12:47:01.946Z,24.57
2018-05-13T12:49:29.370Z,24.82
2018-05-13T12:51:56.813Z,25.39
2018-05-13T12:54:24.235Z,25.01
2018-05-13T12:56:51.690Z,25.22
2018-05-13T12:59:19.117Z,25.60
2018-05-13T13:01:47.517Z,25.09
2018-05-13T13:04:14.930Z,24.77
2018-05-13T13:06:43.036Z,24.78
2018-05-13T13:09:10.497Z,24.57
2018-05-13T13:11:37.913Z,24.95
2018-05-13T13:14:05.378Z,25.37
2018-05-13T13:16:32.801Z,25.42
2018-05-13T13:19:00.256Z,25.49
2018-05-13T13:21:27.678Z,25.05
2018-05-13T13:23:55.144Z,25.25
2018-05-13T13:26:22.590Z,25.28
2018-05-13T13:28:50.046Z,25.71
2018-05-13T13:31:17.474Z,25.91
2018-05-13T13:33:45.230Z,26.84
2018-05-13T13:36:12.650Z,27.14
2018-05-13T13:38:40.093Z,27.92
2018-05-13T13:41:07.514Z,28.34
2018-05-13T13:43:34.966Z,28.69
2018-05-13T13:46:02.394Z,30.39
2018-05-13T13:48:29.829Z,30.92
2018-05-13T13:50:57.254Z,31.91
2018-05-13T13:53:24.727Z,31.80
2018-05-13T13:55:52.125Z,32.60
2018-05-13T13:58:19.565Z,33.44
2018-05-13T14:00:46.981Z,33.84
2018-05-13T14:03:14.416Z,32.53
2018-05-13T14:05:41.894Z,32.82
2018-05-13T14:08:09.337Z,33.81
2018-05-13T14:10:36.782Z,34.36
2018-05-13T14:13:07.721Z,35.65
2018-05-13T14:15:37.152Z,35.61
2018-05-13T14:18:08.183Z,34.48
2018-05-13T14:20:36.684Z,35.07
2018-05-13T14:23:04.013Z,36.07
2018-05-13T14:25:31.465Z,36.45
2018-05-13T14:27:58.877Z,36.20
2018-05-13T14:30:26.322Z,38.31
2018-05-13T14:32:53.817Z,39.46
2018-05-13T14:35:21.205Z,39.70
2018-05-13T14:37:48.656Z,39.95
2018-05-13T14:40:17.056Z,38.89
2018-05-13T14:42:44.486Z,37.73
2018-05-13T14:45:11.956Z,39.40
2018-05-13T14:47:39.428Z,40.12
2018-05-13T14:50:07.814Z,39.64
2018-05-13T14:52:35.271Z,39.64
2018-05-13T14:55:02.671Z,40.89
2018-05-13T14:57:30.115Z,40.39
2018-05-13T14:59:57.545Z,42.34
2018-05-13T15:02:24.985Z,41.22
2018-05-13T15:04:52.469Z,43.69
2018-05-13T15:07:30.722Z,40.56
2018-05-13T15:09:58.129Z,36.40
2018-05-13T15:12:26.571Z,38.19
2018-05-13T15:14:53.988Z,36.65
2018-05-13T15:17:21.434Z,38.94
2018-05-13T15:19:48.849Z,38.35
2018-05-13T15:22:17.191Z,39.96
2018-05-13T15:24:44.605Z,39.90
2018-05-13T15:27:12.060Z,41.82
2018-05-13T15:29:39.498Z,41.32
2018-05-13T15:32:06.913Z,40.03
2018-05-13T15:34:34.349Z,39.55
2018-05-13T15:37:01.763Z,38.08
2018-05-13T15:39:29.201Z,39.67
2018-05-13T15:41:56.617Z,39.48
2018-05-13T15:44:30.742Z,37.73
2018-05-13T15:46:59.138Z,40.03
2018-05-13T15:49:28.470Z,42.95
2018-05-13T15:51:55.883Z,40.94
2018-05-13T15:54:23.343Z,40.86
2018-05-13T15:56:51.668Z,37.26
2018-05-13T15:59:19.121Z,36.99
2018-05-13T16:01:48.475Z,37.08
2018-05-13T16:04:15.929Z,38.92
2018-05-13T16:06:43.355Z,38.27
2018-05-13T16:09:10.814Z,38.23
2018-05-13T16:11:40.140Z,37.13
2018-05-13T16:14:07.558Z,37.20
2018-05-13T16:16:35.910Z,35.59
2018-05-13T16:19:03.339Z,34.49
2018-05-13T16:21:30.786Z,36.55
2018-05-13T16:23:59.166Z,33.85
2018-05-13T16:26:26.620Z,34.89
2018-05-13T16:28:54.038Z,33.09
2018-05-13T16:31:22.405Z,36.78
2018-05-13T16:33:49.842Z,36.58
2018-05-13T16:36:17.282Z,35.52
2018-05-13T16:38:44.706Z,34.96
2018-05-13T16:41:12.142Z,34.83
2018-05-13T16:43:39.565Z,36.07
2018-05-13T16:46:07.000Z,36.10
2018-05-13T16:48:34.410Z,35.14
2018-05-13T16:51:01.862Z,34.87
2018-05-13T16:53:29.282Z,35.50
2018-05-13T16:55:56.721Z,35.53
2018-05-13T16:58:24.133Z,33.92
2018-05-13T17:00:51.568Z,33.92
2018-05-13T17:03:19.929Z,34.60
2018-05-13T17:05:47.365Z,33.54
2018-05-13T17:08:14.794Z,33.87
2018-05-13T17:10:44.127Z,32.57
2018-05-13T17:13:11.569Z,31.72
2018-05-13T17:15:39.036Z,28.32
2018-05-13T17:18:06.432Z,24.63
2018-05-13T17:20:33.839Z,24.08
2018-05-13T17:23:01.269Z,23.38
2018-05-13T17:25:28.689Z,23.09
2018-05-13T17:27:56.130Z,22.39
2018-05-13T17:30:24.445Z,22.23
2018-05-13T17:32:51.889Z,22.04
2018-05-13T17:35:19.302Z,22.03
2018-05-13T17:37:46.750Z,21.84
2018-05-13T17:40:14.157Z,21.98
2018-05-13T17:42:41.593Z,21.66
2018-05-13T17:45:09.006Z,21.58
2018-05-13T17:47:37.436Z,21.22
2018-05-13T17:50:04.868Z,21.32
2018-05-13T17:52:32.356Z,21.24
2018-05-13T17:54:59.776Z,21.12
2018-05-13T17:57:29.112Z,21.17
2018-05-13T17:59:57.534Z,20.94
2018-05-13T18:02:24.962Z,21.16
2018-05-13T18:04:52.431Z,21.01
2018-05-13T18:07:19.805Z,20.90
2018-05-13T18:09:47.246Z,20.85
2018-05-13T18:12:18.213Z,20.69
2018-05-13T18:14:45.661Z,20.61
2018-05-13T18:17:13.086Z,20.55
2018-05-13T18:19:40.526Z,20.47
2018-05-13T18:22:07.951Z,20.50
2018-05-13T18:24:35.406Z,20.41
2018-05-13T18:27:03.794Z,20.39
2018-05-13T18:29:32.322Z,20.29
2018-05-13T18:32:01.325Z,20.44
2018-05-13T18:34:28.858Z,20.13
2018-05-13T18:37:19.374Z,20.17
2018-05-13T18:39:55.012Z,20.22
2018-05-13T18:42:30.120Z,19.96
2018-05-13T18:44:59.539Z,19.82
2018-05-13T18:47:27.367Z,19.85
2018-05-13T18:49:54.874Z,19.83
2018-05-13T18:52:22.282Z,19.61
2018-05-13T18:54:49.716Z,19.47
2018-05-13T18:57:17.162Z,19.44
2018-05-13T18:59:51.330Z,19.32
2018-05-13T19:02:22.129Z,19.31
2018-05-13T19:04:50.526Z,19.19
2018-05-13T19:07:19.278Z,18.95
2018-05-13T19:09:46.690Z,19.00
2018-05-13T19:12:14.174Z,18.86
2018-05-13T19:14:42.511Z,18.75
2018-05-13T19:17:10.910Z,18.70
2018-05-13T19:19:38.329Z,18.59
2018-05-13T19:22:26.832Z,18.51
2018-05-13T19:24:55.191Z,18.51
2018-05-13T19:27:24.622Z,18.41
2018-05-13T19:29:52.049Z,18.31
2018-05-13T19:32:20.438Z,18.29
2018-05-13T19:34:47.862Z,18.30
2018-05-13T19:37:15.726Z,18.22
2018-05-13T19:39:43.134Z,18.17
2018-05-13T19:42:14.617Z,18.11
2018-05-13T19:44:44.795Z,18.00
2018-05-13T19:47:14.630Z,17.99
2018-05-13T19:49:43.102Z,17.91
2018-05-13T19:52:10.645Z,17.87
2018-05-13T19:54:40.039Z,17.96
2018-05-13T19:57:08.611Z,17.92
2018-05-13T19:59:37.006Z,17.87
2018-05-13T20:02:04.436Z,18.09
2018-05-13T20:04:31.923Z,17.78
2018-05-13T20:06:59.355Z,17.68
2018-05-13T20:09:26.809Z,17.58
2018-05-13T20:11:54.241Z,17.57
2018-05-13T20:14:21.683Z,17.60
2018-05-13T20:16:49.098Z,17.56
2018-05-13T20:19:16.551Z,17.53
2018-05-13T20:21:44.027Z,17.32
2018-05-13T20:24:11.481Z,17.19
2018-05-13T20:26:43.618Z,17.23
2018-05-13T20:29:12.056Z,17.10
2018-05-13T20:31:39.476Z,17.00
2018-05-13T20:34:06.932Z,16.97
2018-05-13T20:36:34.450Z,16.98
2018-05-13T20:39:01.889Z,16.83
2018-05-13T20:41:29.315Z,16.57
2018-05-13T20:43:56.755Z,16.59
2018-05-13T20:46:25.099Z,16.57
2018-05-13T20:48:52.569Z,16.51
2018-05-13T20:51:20.022Z,16.24
2018-05-13T20:53:47.419Z,16.40
2018-05-13T20:56:14.854Z,16.13
2018-05-13T20:58:42.303Z,16.23
2018-05-13T21:01:09.770Z,16.19
2018-05-13T21:03:37.204Z,16.28
2018-05-13T21:06:04.679Z,16.24
2018-05-13T21:08:33.051Z,16.03
2018-05-13T21:11:01.448Z,16.09
2018-05-13T21:13:28.872Z,16.02
2018-05-13T21:15:56.333Z,16.07
2018-05-13T21:18:23.763Z,16.07
2018-05-13T21:20:51.207Z,16.02
2018-05-13T21:23:19.632Z,15.90
2018-05-13T21:25:47.076Z,15.91
2018-05-13T21:28:14.494Z,15.92
2018-05-13T21:30:41.935Z,15.94
2018-05-13T21:33:09.363Z,15.98
2018-05-13T21:35:40.635Z,15.92
2018-05-13T21:38:08.779Z,15.93
2018-05-13T21:40:36.239Z,15.87
2018-05-13T21:43:03.654Z,15.86
2018-05-13T21:45:31.152Z,15.92
2018-05-13T21:47:58.582Z,15.75
2018-05-13T21:50:26.058Z,15.77
2018-05-13T21:52:53.539Z,15.73
2018-05-13T21:55:20.964Z,15.67
2018-05-13T21:57:48.408Z,15.68
2018-05-13T22:00:15.824Z,15.71
2018-05-13T22:02:43.266Z,15.59
2018-05-13T22:05:10.692Z,15.55
2018-05-13T22:07:38.134Z,15.63
2018-05-13T22:10:05.548Z,15.63
2018-05-13T22:12:33.002Z,15.43
2018-05-13T22:15:00.420Z,15.37
2018-05-13T22:17:27.861Z,15.42
2018-05-13T22:19:55.294Z,15.44
2018-05-13T22:22:22.745Z,15.43
2018-05-13T22:24:51.039Z,15.28
2018-05-13T22:27:18.475Z,15.16
2018-05-13T22:29:46.889Z,15.17
2018-05-13T22:32:15.321Z,15.20
2018-05-13T22:34:43.737Z,15.19
2018-05-13T22:37:15.594Z,15.05
2018-05-13T22:42:41.916Z,14.93
2018-05-13T22:45:20.342Z,14.98
2018-05-13T22:47:48.043Z,14.92
2018-05-13T22:50:20.195Z,14.93
2018-05-13T22:52:48.750Z,14.94
2018-05-13T22:55:20.214Z,15.10
2018-05-13T22:57:47.828Z,15.18
2018-05-13T23:00:15.344Z,15.22
2018-05-13T23:02:42.996Z,15.12
2018-05-13T23:05:11.517Z,15.11
2018-05-13T23:07:38.979Z,15.04
